Time;durP1;ratioP1;P1;durP2;ratioP2;P2;SDS_P1;SDS_P2;PMS_P1;PMS_P2;Temp;Humidity;BMP_temperature;BMP_pressure;BME280_temperature;BME280_humidity;BME280_pressure;Samples;Min_cycle;Max_cycle;Signal;HPM_P1;HPM_P2
2022/09/05 02:47:47;;;;;;;3.28;1.65;;;17.10;99.90;;;;;;5264718;23;83675;-67
2022/09/05 02:50:43;;;;;;;4.45;1.42;;;17.10;99.90;;;;;;4882949;28;82181;-68
2022/09/05 02:53:12;;;;;;;2.88;1.13;;;17.10;99.90;;;;;;4832482;28;82122;-67
2022/09/05 02:56:08;;;;;;;1.23;0.60;;;17.10;99.90;;;;;;4885739;28;81767;-70
2022/09/05 02:58:37;;;;;;;2.53;0.98;;;17.20;99.90;;;;;;4886642;28;81625;-67
2022/09/05 03:01:17;;;;;;;2.63;0.90;;;17.20;99.90;;;;;;4887042;28;82819;-65
2022/09/05 03:03:51;;;;;;;3.17;1.20;;;17.20;99.80;;;;;;4885941;28;83609;-69
2022/09/05 03:06:45;;;;;;;3.17;1.45;;;17.20;99.50;;;;;;4867215;28;81168;-65
2022/09/05 03:09:15;;;;;;;3.50;1.10;;;17.30;99.10;;;;;;4872490;28;83477;-66
2022/09/05 03:11:55;;;;;;;6.05;1.20;;;17.20;99.00;;;;;;4881005;28;82747;-66
2022/09/05 03:14:26;;;;;;;3.65;0.93;;;17.10;99.30;;;;;;4882827;28;82168;-65
2022/09/05 03:17:14;;;;;;;2.47;1.23;;;17.10;99.70;;;;;;4881318;28;81845;-67
2022/09/05 03:19:58;;;;;;;2.08;1.10;;;17.00;99.50;;;;;;4882013;28;82767;-66
2022/09/05 03:22:39;;;;;;;3.42;1.00;;;17.00;99.90;;;;;;4882719;28;82698;-71
2022/09/05 03:25:39;;;;;;;4.55;1.33;;;16.90;99.90;;;;;;4878841;28;83340;-70
2022/09/05 03:28:04;;;;;;;2.47;0.98;;;16.90;99.80;;;;;;4880428;28;81993;-66
2022/09/05 03:30:52;;;;;;;2.38;1.10;;;16.90;99.90;;;;;;4885383;28;81883;-70
2022/09/05 03:33:32;;;;;;;2.60;1.38;;;16.90;99.90;;;;;;4878616;28;82568;-68
2022/09/05 03:36:29;;;;;;;4.07;1.17;;;16.90;99.90;;;;;;4894838;28;82054;-69
2022/09/05 03:39:16;;;;;;;2.70;1.02;;;16.70;99.90;;;;;;4871601;28;82355;-67
2022/09/05 03:42:02;;;;;;;3.67;1.20;;;16.70;99.90;;;;;;4877097;28;81880;-66
2022/09/05 03:45:04;;;;;;;3.67;1.40;;;16.80;99.90;;;;;;4881295;28;82278;-67
2022/09/05 03:48:19;;;;;;;3.80;1.60;;;16.70;99.90;;;;;;4880055;28;81598;-68
2022/09/05 03:51:12;;;;;;;2.78;1.40;;;16.50;99.90;;;;;;4875497;28;81217;-68
2022/09/05 03:54:19;;;;;;;3.15;1.55;;;16.40;99.90;;;;;;4882776;28;83115;-66
2022/09/05 03:57:19;;;;;;;4.35;1.25;;;16.30;99.90;;;;;;4880697;28;82094;-72
2022/09/05 04:00:13;;;;;;;2.05;1.10;;;16.40;99.90;;;;;;4887512;28;82144;-69
2022/09/05 04:03:00;;;;;;;2.78;1.45;;;16.30;99.90;;;;;;4880793;28;81772;-71
2022/09/05 04:05:53;;;;;;;4.03;1.20;;;16.20;99.90;;;;;;4886095;28;81937;-68
2022/09/05 04:08:38;;;;;;;5.25;1.23;;;16.20;99.90;;;;;;4884522;28;83109;-70
2022/09/05 04:11:15;;;;;;;2.30;1.20;;;16.30;99.90;;;;;;4887286;28;82417;-69
2022/09/05 04:13:52;;;;;;;5.05;1.38;;;16.40;99.90;;;;;;4888795;28;81924;-68
2022/09/05 04:16:18;;;;;;;3.65;1.38;;;16.30;99.90;;;;;;4892523;28;81752;-67
2022/09/05 04:19:06;;;;;;;2.50;1.20;;;16.30;99.90;;;;;;4875341;28;82223;-67
2022/09/05 04:21:35;;;;;;;5.13;1.02;;;16.40;99.90;;;;;;4888302;28;81565;-67
2022/09/05 04:24:08;;;;;;;2.22;1.17;;;16.50;99.90;;;;;;4889566;28;81147;-69
2022/09/05 04:27:00;;;;;;;2.45;1.13;;;16.50;99.90;;;;;;4887556;28;82173;-68
2022/09/05 04:29:37;;;;;;;3.03;0.98;;;16.50;99.90;;;;;;4882356;28;81543;-67
2022/09/05 04:32:24;;;;;;;5.35;1.20;;;16.60;99.90;;;;;;4888372;28;81860;-67
2022/09/05 04:35:11;;;;;;;2.88;1.02;;;16.60;99.90;;;;;;4883301;28;82699;-67
2022/09/05 04:38:03;;;;;;;3.15;1.20;;;16.60;99.90;;;;;;4885614;28;82082;-69
2022/09/05 04:40:37;;;;;;;3.70;1.25;;;16.60;99.90;;;;;;4876062;28;82555;-67
2022/09/05 04:43:14;;;;;;;2.25;1.00;;;16.60;99.90;;;;;;4881776;28;83003;-70
2022/09/05 04:46:00;;;;;;;3.38;1.20;;;16.70;99.90;;;;;;4880204;28;81432;-67
2022/09/05 04:48:33;;;;;;;2.83;1.30;;;16.80;99.90;;;;;;4885820;28;84353;-69
2022/09/05 04:51:05;;;;;;;3.15;1.45;;;16.70;99.90;;;;;;4881378;28;81619;-67
2022/09/05 04:53:59;;;;;;;4.13;1.52;;;16.70;99.90;;;;;;4886253;28;81148;-69
2022/09/05 04:56:31;;;;;;;2.83;1.10;;;16.60;99.90;;;;;;4890863;28;81509;-69
2022/09/05 04:59:07;;;;;;;4.28;1.25;;;16.50;99.90;;;;;;4883609;28;81843;-68
2022/09/05 05:01:48;;;;;;;5.65;1.40;;;16.60;99.90;;;;;;4891098;28;82733;-69
2022/09/05 05:04:18;;;;;;;2.15;1.15;;;16.60;99.90;;;;;;4886779;28;82508;-71
2022/09/05 05:07:04;;;;;;;4.22;1.58;;;16.70;99.90;;;;;;4887416;28;81108;-70
2022/09/05 05:09:43;;;;;;;5.32;1.33;;;16.90;99.90;;;;;;4885882;28;81844;-73
2022/09/05 05:12:17;;;;;;;5.65;1.67;;;17.00;99.90;;;;;;4886292;28;81436;-68
2022/09/05 05:15:00;;;;;;;3.22;1.30;;;17.00;99.90;;;;;;4886268;28;82052;-68
2022/09/05 05:17:40;;;;;;;3.88;1.52;;;17.10;99.90;;;;;;4887158;28;83077;-69
2022/09/05 05:20:06;;;;;;;8.73;2.03;;;17.10;99.90;;;;;;4887628;28;81764;-69
2022/09/05 05:22:31;;;;;;;3.85;1.40;;;17.60;99.90;;;;;;4883708;28;82275;-70
2022/09/05 05:24:59;;;;;;;2.63;1.55;;;18.30;99.00;;;;;;4883041;28;81868;-69
2022/09/05 05:27:32;;;;;;;3.15;1.55;;;18.60;97.30;;;;;;4881671;28;83444;-68
2022/09/05 05:30:03;;;;;;;4.57;1.65;;;18.70;95.90;;;;;;4885623;28;82118;-69
2022/09/05 05:32:33;;;;;;;2.50;1.50;;;18.90;95.80;;;;;;4885126;28;82222;-67
2022/09/05 05:35:11;;;;;;;6.88;1.88;;;19.20;94.60;;;;;;4881388;28;81914;-67
2022/09/05 05:37:43;;;;;;;3.38;1.02;;;18.90;94.90;;;;;;4884395;28;82529;-67
2022/09/05 05:40:14;;;;;;;7.15;1.60;;;18.90;96.00;;;;;;4882769;28;81705;-67
2022/09/05 05:42:41;;;;;;;4.55;1.45;;;18.60;95.80;;;;;;4877286;28;81625;-67
2022/09/05 05:45:18;;;;;;;5.88;1.52;;;18.70;95.90;;;;;;4875885;28;83812;-68
2022/09/05 05:48:02;;;;;;;5.93;1.58;;;18.50;96.80;;;;;;4880776;28;81766;-68
2022/09/05 05:51:02;;;;;;;5.13;1.90;;;18.50;97.40;;;;;;4881617;28;81574;-67
2022/09/05 05:53:56;;;;;;;5.07;1.40;;;18.60;97.30;;;;;;4885827;28;83415;-68
2022/09/05 05:57:05;;;;;;;5.65;1.80;;;18.90;97.10;;;;;;4880355;28;84468;-67
2022/09/05 05:59:52;;;;;;;4.72;1.77;;;18.80;97.40;;;;;;4880306;28;82532;-69
2022/09/05 06:02:42;;;;;;;4.03;1.67;;;19.10;96.50;;;;;;4879496;28;81773;-69
2022/09/05 06:05:49;;;;;;;3.00;1.42;;;19.40;96.20;;;;;;4882995;28;83352;-68
2022/09/05 06:08:52;;;;;;;3.22;1.98;;;19.90;94.80;;;;;;4881144;28;82062;-69
2022/09/05 06:11:44;;;;;;;6.60;2.10;;;20.50;93.50;;;;;;4883570;28;82313;-69
2022/09/05 06:14:32;;;;;;;6.43;1.83;;;20.60;93.20;;;;;;4887201;28;81244;-68
2022/09/05 06:17:32;;;;;;;5.20;1.90;;;20.90;92.40;;;;;;4880846;28;82236;-68
2022/09/05 06:20:24;;;;;;;4.10;1.92;;;21.70;90.70;;;;;;4875865;28;83237;-69
2022/09/05 06:22:53;;;;;;;8.68;2.20;;;22.50;87.60;;;;;;4882942;28;82343;-73
2022/09/05 06:25:28;;;;;;;5.57;2.25;;;23.60;83.50;;;;;;4884222;28;82127;-69
2022/09/05 06:28:35;;;;;;;7.30;2.55;;;24.70;76.90;;;;;;4879977;28;82257;-69
2022/09/05 06:31:33;;;;;;;4.45;2.13;;;25.70;69.80;;;;;;4878238;28;82029;-72
2022/09/05 06:34:20;;;;;;;6.40;2.80;;;26.20;69.30;;;;;;4883310;28;82119;-69
2022/09/05 06:37:23;;;;;;;6.65;2.10;;;26.20;69.00;;;;;;4882804;28;81505;-71
2022/09/05 06:40:10;;;;;;;3.38;2.17;;;26.90;70.30;;;;;;4865030;28;81697;-72
2022/09/05 06:43:08;;;;;;;5.07;2.53;;;28.10;65.30;;;;;;4883799;28;82809;-68
2022/09/05 06:45:54;;;;;;;3.30;2.20;;;29.00;63.10;;;;;;4870056;28;81332;-69
2022/09/05 06:48:24;;;;;;;3.45;1.75;;;27.90;63.80;;;;;;4872977;28;81782;-69
2022/09/05 06:51:18;;;;;;;2.72;2.25;;;27.20;64.60;;;;;;4879597;28;82432;-69
2022/09/05 06:54:09;;;;;;;5.55;2.08;;;25.90;66.80;;;;;;4887379;28;81944;-69
2022/09/05 06:56:40;;;;;;;3.47;2.03;;;25.40;68.70;;;;;;4886604;28;81587;-68
2022/09/05 06:59:28;;;;;;;6.30;2.15;;;26.10;67.80;;;;;;4883893;28;81816;-69
2022/09/05 07:02:07;;;;;;;2.78;2.00;;;26.90;65.90;;;;;;4883126;28;81574;-71
2022/09/05 07:04:41;;;;;;;3.85;2.17;;;28.00;64.80;;;;;;4882130;28;82344;-70
2022/09/05 07:07:24;;;;;;;4.28;2.72;;;29.10;62.40;;;;;;4883831;28;81169;-69
2022/09/05 07:10:05;;;;;;;3.08;2.25;;;29.70;59.40;;;;;;4882501;28;81629;-70
2022/09/05 07:13:05;;;;;;;4.47;2.30;;;29.80;59.30;;;;;;4884974;28;84035;-70
2022/09/05 07:15:42;;;;;;;5.50;3.10;;;30.40;57.30;;;;;;4875583;28;81700;-72
2022/09/05 07:18:36;;;;;;;3.90;2.83;;;31.00;55.90;;;;;;4881476;28;82888;-69
2022/09/05 07:21:30;;;;;;;4.05;2.08;;;32.10;53.50;;;;;;4882208;28;81779;-70
2022/09/05 07:24:14;;;;;;;7.18;2.10;;;31.50;51.90;;;;;;4868534;28;82117;-73
2022/09/05 07:26:44;;;;;;;4.20;2.58;;;31.50;52.00;;;;;;4879160;28;82506;-71
2022/09/05 07:29:15;;;;;;;4.43;2.60;;;33.40;50.60;;;;;;4879857;28;82571;-72
2022/09/05 07:31:45;;;;;;;4.32;2.05;;;31.90;49.40;;;;;;4875053;28;81906;-69
2022/09/05 07:34:30;;;;;;;4.53;2.35;;;30.50;54.30;;;;;;4883187;28;82112;-69
2022/09/05 07:37:00;;;;;;;4.25;3.33;;;31.10;54.20;;;;;;4880605;28;81936;-68
2022/09/05 07:39:30;;;;;;;7.07;2.60;;;32.20;50.40;;;;;;4883927;28;81312;-68
2022/09/05 07:42:03;;;;;;;5.90;3.47;;;32.60;53.10;;;;;;4879374;28;81877;-68
2022/09/05 07:44:35;;;;;;;;;;;33.80;48.30;;;;;;4883057;28;84477;-74
2022/09/05 07:47:19;;;;;;;4.90;3.15;;;33.10;49.40;;;;;;4884413;28;81938;-69
2022/09/05 07:49:47;;;;;;;8.27;2.63;;;32.90;50.50;;;;;;4882815;28;81967;-70
2022/09/05 07:52:17;;;;;;;5.50;3.03;;;32.00;50.90;;;;;;4876077;28;81819;-68
2022/09/05 07:54:47;;;;;;;6.25;2.97;;;30.80;52.70;;;;;;4890839;28;81643;-70
2022/09/05 07:57:20;;;;;;;3.28;2.00;;;30.40;54.00;;;;;;4871686;28;81603;-73
2022/09/05 07:59:49;;;;;;;10.07;3.58;;;30.90;54.50;;;;;;4884565;28;82172;-69
2022/09/05 08:02:15;;;;;;;7.18;2.90;;;32.30;51.10;;;;;;4878573;28;81725;-70
2022/09/05 08:04:41;;;;;;;6.65;3.03;;;32.10;52.90;;;;;;4883048;28;81605;-69
2022/09/05 08:07:12;;;;;;;3.92;3.33;;;35.00;46.70;;;;;;4879929;28;83222;-68
2022/09/05 08:09:55;;;;;;;5.32;3.90;;;36.50;45.60;;;;;;4876705;28;83112;-69
2022/09/05 08:12:31;;;;;;;5.18;3.47;;;37.70;41.60;;;;;;4879596;28;81497;-70
2022/09/05 08:15:21;;;;;;;6.68;4.07;;;37.30;43.00;;;;;;4878959;28;83929;-68
2022/09/05 08:17:54;;;;;;;4.65;4.25;;;39.40;40.40;;;;;;4879439;28;83724;-70
2022/09/05 08:20:45;;;;;;;6.90;4.07;;;38.90;39.90;;;;;;4880036;28;81604;-67
2022/09/05 08:23:33;;;;;;;5.32;4.05;;;38.80;39.00;;;;;;4882575;28;82420;-71
2022/09/05 08:26:08;;;;;;;3.88;3.13;;;36.80;41.30;;;;;;4878988;28;81559;-68
2022/09/05 08:28:47;;;;;;;;;;;35.70;41.70;;;;;;4879989;28;82869;-67
2022/09/05 08:31:23;;;;;;;5.93;3.03;;;34.20;44.40;;;;;;4875545;28;81429;-68
2022/09/05 08:33:55;;;;;;;5.15;2.92;;;33.00;46.40;;;;;;4875956;28;81640;-70
2022/09/05 08:36:35;;;;;;;6.10;2.03;;;32.50;46.60;;;;;;4878333;28;82630;-69
2022/09/05 08:39:06;;;;;;;4.85;3.13;;;31.50;51.90;;;;;;4877004;28;83044;-69
2022/09/05 08:41:59;;;;;;;3.95;3.00;;;30.90;54.10;;;;;;4879629;28;82085;-69
2022/09/05 08:44:34;;;;;;;3.53;2.47;;;30.50;55.20;;;;;;4876608;28;82978;-67
2022/09/05 08:47:17;;;;;;;4.72;3.03;;;31.50;53.10;;;;;;4883096;28;82337;-67
2022/09/05 08:50:10;;;;;;;5.35;3.17;;;31.30;55.00;;;;;;4882029;28;83886;-69
2022/09/05 08:53:14;;;;;;;3.63;2.53;;;31.20;54.20;;;;;;4885022;28;81337;-69
2022/09/05 08:56:00;;;;;;;4.82;3.42;;;30.50;54.80;;;;;;4827358;29;81776;-69
2022/09/05 08:58:44;;;;;;;3.95;2.95;;;29.90;56.80;;;;;;4880702;28;81625;-69
2022/09/05 09:01:32;;;;;;;7.15;2.20;;;30.10;57.30;;;;;;4884183;28;83738;-69
2022/09/05 09:04:06;;;;;;;5.63;3.50;;;30.00;57.40;;;;;;4879835;28;84723;-69
2022/09/05 09:07:03;;;;;;;5.53;3.45;;;29.90;57.00;;;;;;4887493;28;81834;-69
2022/09/05 09:09:47;;;;;;;5.22;3.53;;;29.40;58.60;;;;;;4882669;28;82167;-69
2022/09/05 09:12:40;;;;;;;4.28;2.58;;;30.00;58.60;;;;;;4883275;28;83378;-68
2022/09/05 09:15:40;;;;;;;5.07;2.97;;;30.70;56.50;;;;;;4878349;28;81283;-69
2022/09/05 09:18:14;;;;;;;6.95;3.53;;;30.50;56.00;;;;;;4884710;28;83573;-68
2022/09/05 09:21:11;;;;;;;4.75;2.70;;;29.90;58.20;;;;;;4887828;28;83355;-69
2022/09/05 09:23:48;;;;;;;4.95;4.22;;;30.70;57.40;;;;;;4880141;28;83217;-66
2022/09/05 09:26:15;;;;;;;6.22;4.10;;;35.00;51.20;;;;;;4883949;28;81991;-67
2022/09/05 09:28:47;;;;;;;7.25;4.38;;;39.30;45.40;;;;;;4892837;28;81181;-67
2022/09/05 09:31:46;;;;;;;6.43;3.97;;;41.30;43.20;;;;;;4882838;28;84334;-67
2022/09/05 09:34:15;;;;;;;7.05;4.78;;;41.90;41.30;;;;;;4881088;28;82865;-67
2022/09/05 09:36:46;;;;;;;6.03;5.40;;;42.80;39.90;;;;;;4880527;28;81360;-67
2022/09/05 09:39:34;;;;;;;6.18;5.00;;;42.90;38.60;;;;;;4881334;28;81770;-67
2022/09/05 09:42:11;;;;;;;10.52;6.00;;;42.90;38.30;;;;;;4884588;28;82619;-67
2022/09/05 09:44:55;;;;;;;6.68;6.03;;;43.50;38.90;;;;;;4881306;28;82082;-67
2022/09/05 09:47:47;;;;;;;8.00;7.20;;;44.40;36.40;;;;;;4878850;28;82504;-69
2022/09/05 09:50:25;;;;;;;6.00;5.45;;;43.60;38.80;;;;;;4873171;28;81108;-69
2022/09/05 09:52:56;;;;;;;8.75;7.57;;;45.10;36.70;;;;;;4882165;28;81543;-69
2022/09/05 09:55:40;;;;;;;8.20;7.25;;;46.50;35.80;;;;;;4886196;28;81262;-71
2022/09/05 09:58:17;;;;;;;8.48;7.43;;;45.90;35.60;;;;;;4877363;28;82268;-69
2022/09/05 10:00:50;;;;;;;14.57;7.65;;;46.40;35.20;;;;;;4880874;28;82408;-71
2022/09/05 10:03:30;;;;;;;9.77;7.90;;;46.20;35.60;;;;;;4883263;28;84241;-69
2022/09/05 10:05:59;;;;;;;;;;;45.00;35.50;;;;;;4886941;28;82127;-67
2022/09/05 10:09:09;;;;;;;7.57;6.72;;;44.10;37.00;;;;;;4881129;28;83099;-71
2022/09/05 10:11:58;;;;;;;6.55;5.82;;;44.20;36.10;;;;;;4881343;28;82061;-69
2022/09/05 10:14:44;;;;;;;6.57;5.97;;;42.70;37.90;;;;;;4883424;28;83563;-68
2022/09/05 10:17:29;;;;;;;5.75;5.25;;;42.40;37.30;;;;;;4879455;28;81341;-68
2022/09/05 10:20:03;;;;;;;7.82;5.93;;;41.70;36.80;;;;;;4888844;28;82775;-70
2022/09/05 10:22:59;;;;;;;10.35;5.45;;;40.20;39.60;;;;;;4889033;28;82121;-69
2022/09/05 10:25:36;;;;;;;6.90;6.30;;;39.10;39.20;;;;;;4881003;28;84793;-68
2022/09/05 10:28:12;;;;;;;9.10;5.72;;;37.20;42.10;;;;;;4889405;28;82939;-67
2022/09/05 10:31:06;;;;;;;5.35;4.85;;;35.30;44.40;;;;;;4878694;28;81890;-68
2022/09/05 10:33:46;;;;;;;6.35;5.03;;;34.20;45.20;;;;;;4882283;28;81817;-71
2022/09/05 10:36:23;;;;;;;7.15;4.95;;;33.00;48.70;;;;;;4881703;28;82191;-70
2022/09/05 10:39:13;;;;;;;4.57;4.10;;;32.10;51.30;;;;;;4883111;28;81721;-70
2022/09/05 10:41:57;;;;;;;6.63;3.72;;;31.60;50.80;;;;;;4875901;28;82108;-68
2022/09/05 10:44:39;;;;;;;5.10;3.63;;;31.30;53.80;;;;;;4884129;28;80907;-71
2022/09/05 10:47:29;;;;;;;6.47;3.42;;;31.30;54.20;;;;;;4880247;28;82372;-70
2022/09/05 10:50:26;;;;;;;4.13;3.17;;;30.90;54.20;;;;;;4877095;28;81965;-71
2022/09/05 10:53:10;;;;;;;5.43;4.00;;;30.60;54.40;;;;;;4887083;28;82296;-71
2022/09/05 10:55:55;;;;;;;5.88;3.13;;;30.40;55.00;;;;;;4875786;28;81747;-71
2022/09/05 10:58:49;;;;;;;6.75;3.00;;;30.00;54.10;;;;;;4886395;28;82048;-69
2022/09/05 11:01:41;;;;;;;3.67;3.03;;;29.70;54.60;;;;;;4883478;28;82151;-70
2022/09/05 11:04:18;;;;;;;5.25;2.95;;;29.30;56.60;;;;;;4880078;28;81649;-73
2022/09/05 11:06:43;;;;;;;4.63;3.28;;;29.30;56.60;;;;;;4877754;28;81869;-70
2022/09/05 11:09:18;;;;;;;5.32;2.45;;;29.70;55.50;;;;;;4880037;28;82376;-70
2022/09/05 11:11:53;;;;;;;3.97;2.95;;;29.20;55.50;;;;;;4880874;28;81899;-72
2022/09/05 11:14:27;;;;;;;4.93;2.80;;;29.20;56.30;;;;;;4888998;28;81534;-77
2022/09/05 11:17:06;;;;;;;3.67;1.88;;;29.30;56.00;;;;;;4882016;28;82663;-69
2022/09/05 11:19:42;;;;;;;5.15;2.83;;;29.50;53.20;;;;;;4881869;28;82827;-71
2022/09/05 11:22:11;;;;;;;5.47;3.03;;;29.50;53.50;;;;;;4878851;28;83007;-69
2022/09/05 11:24:49;;;;;;;4.32;2.20;;;29.20;54.40;;;;;;4879545;28;82649;-69
2022/09/05 11:27:33;;;;;;;4.07;2.80;;;29.00;55.20;;;;;;4880233;28;81668;-72
2022/09/05 11:30:03;;;;;;;4.78;3.13;;;29.20;56.10;;;;;;4879682;28;82228;-71
2022/09/05 11:32:31;;;;;;;3.15;2.33;;;29.50;56.10;;;;;;4885659;28;84207;-72
2022/09/05 11:35:11;;;;;;;7.93;2.88;;;30.00;53.20;;;;;;4883016;28;81716;-72
2022/09/05 11:37:49;;;;;;;5.72;2.95;;;30.10;54.30;;;;;;4879852;28;81698;-73
2022/09/05 11:40:33;;;;;;;4.25;2.60;;;30.20;53.30;;;;;;4870993;28;82548;-71
2022/09/05 11:43:23;;;;;;;4.65;2.70;;;30.00;53.50;;;;;;4880774;28;83444;-72
2022/09/05 11:46:11;;;;;;;3.08;2.78;;;30.30;50.90;;;;;;4875637;28;83292;-71
2022/09/05 11:48:46;;;;;;;3.17;2.45;;;29.60;52.90;;;;;;4876566;28;82987;-72
2022/09/05 11:51:49;;;;;;;5.10;2.30;;;29.90;52.00;;;;;;4875886;28;81983;-72
2022/09/05 11:54:35;;;;;;;3.17;2.35;;;29.40;54.60;;;;;;4884409;28;81701;-72
2022/09/05 11:57:23;;;;;;;3.35;1.70;;;29.80;54.10;;;;;;4879460;28;81282;-71
2022/09/05 12:00:43;;;;;;;4.75;2.97;;;30.10;51.60;;;;;;4879080;28;83156;-72
2022/09/05 12:03:53;;;;;;;3.42;3.05;;;29.50;54.50;;;;;;4838463;29;82152;-72
2022/09/05 12:06:34;;;;;;;3.95;2.10;;;29.30;55.40;;;;;;4876715;28;83566;-72
2022/09/05 12:09:24;;;;;;;4.25;2.25;;;29.00;55.40;;;;;;4880312;28;81255;-70
2022/09/05 12:12:11;;;;;;;3.30;2.35;;;28.60;56.40;;;;;;4877963;28;82098;-71
2022/09/05 12:14:52;;;;;;;5.30;2.47;;;28.40;57.20;;;;;;4875142;28;84616;-68
2022/09/05 12:17:50;;;;;;;3.17;2.13;;;27.90;56.60;;;;;;4881126;28;83937;-69
2022/09/05 12:20:35;;;;;;;2.05;1.67;;;27.90;54.90;;;;;;4876095;28;83780;-71
2022/09/05 12:23:19;;;;;;;5.35;1.92;;;27.80;56.50;;;;;;4891437;28;82037;-68
2022/09/05 12:26:22;;;;;;;3.03;1.52;;;27.70;56.60;;;;;;4884242;28;81581;-72
2022/09/05 12:28:59;;;;;;;4.15;2.17;;;27.70;56.60;;;;;;4874776;28;84089;-71
2022/09/05 12:31:25;;;;;;;2.97;2.00;;;28.10;55.10;;;;;;4880882;28;81288;-71
2022/09/05 12:33:51;;;;;;;5.45;3.00;;;28.00;54.60;;;;;;4883369;28;83188;-71
2022/09/05 12:36:17;;;;;;;2.90;1.88;;;28.20;51.10;;;;;;4871756;28;82093;-69
2022/09/05 12:39:09;;;;;;;2.40;2.08;;;28.00;54.60;;;;;;4878826;28;83777;-70
2022/09/05 12:41:59;;;;;;;2.28;1.95;;;27.90;53.80;;;;;;4871720;28;83986;-69
2022/09/05 12:44:35;;;;;;;2.58;1.80;;;28.00;53.90;;;;;;4879596;28;83277;-70
2022/09/05 12:47:09;;;;;;;4.03;1.65;;;28.30;53.90;;;;;;4876083;28;82535;-70
2022/09/05 12:50:05;;;;;;;3.42;2.05;;;28.30;54.40;;;;;;4888964;28;83213;-69
2022/09/05 12:52:32;;;;;;;3.10;1.88;;;27.90;53.80;;;;;;4877605;28;81821;-70
2022/09/05 12:55:08;;;;;;;4.43;2.20;;;27.00;55.50;;;;;;4884081;28;82159;-71
2022/09/05 12:57:36;;;;;;;3.45;1.98;;;27.10;56.30;;;;;;4879720;28;83650;-73
2022/09/05 13:00:10;;;;;;;6.47;2.22;;;27.50;56.20;;;;;;4884570;28;82943;-69
2022/09/05 13:02:38;;;;;;;4.03;2.53;;;27.30;54.60;;;;;;4887801;28;81491;-72
2022/09/05 13:05:17;;;;;;;4.63;2.22;;;27.00;56.20;;;;;;4888583;28;81825;-70
2022/09/05 13:07:55;;;;;;;3.25;1.88;;;27.00;55.80;;;;;;4874387;28;83293;-69
2022/09/05 13:10:40;;;;;;;2.63;1.85;;;27.40;57.80;;;;;;4879466;28;82904;-69
2022/09/05 13:13:45;;;;;;;4.03;2.28;;;27.30;55.20;;;;;;4884611;28;82633;-70
2022/09/05 13:16:18;;;;;;;4.65;1.73;;;27.50;57.10;;;;;;4842528;29;81780;-69
2022/09/05 13:18:46;;;;;;;4.35;1.75;;;27.90;56.70;;;;;;4870927;28;82222;-69
2022/09/05 13:21:29;;;;;;;2.88;1.73;;;28.30;56.90;;;;;;4883151;28;83536;-69
2022/09/05 13:24:20;;;;;;;3.53;2.05;;;28.60;55.90;;;;;;4881818;28;83455;-69
2022/09/05 13:26:50;;;;;;;4.57;2.05;;;28.60;53.60;;;;;;4879158;28;81768;-68
2022/09/05 13:29:24;;;;;;;3.45;1.75;;;27.70;56.30;;;;;;4881775;28;82998;-69
2022/09/05 13:31:53;;;;;;;4.30;2.22;;;28.40;54.30;;;;;;4880052;28;82046;-69
2022/09/05 13:34:28;;;;;;;5.70;1.95;;;28.50;54.90;;;;;;4877245;28;82730;-68
2022/09/05 13:37:25;;;;;;;4.07;1.90;;;28.80;55.40;;;;;;4882930;28;82017;-69
2022/09/05 13:40:05;;;;;;;3.85;1.92;;;28.90;54.40;;;;;;4878864;28;81575;-68
2022/09/05 13:43:14;;;;;;;3.20;1.73;;;28.60;53.80;;;;;;4884777;28;81971;-70
2022/09/05 13:45:55;;;;;;;3.75;2.03;;;28.50;53.20;;;;;;4881565;28;81891;-69
2022/09/05 13:48:33;;;;;;;2.47;1.95;;;28.30;53.30;;;;;;4879994;28;83536;-69
2022/09/05 13:51:26;;;;;;;3.85;2.00;;;28.00;54.50;;;;;;4885260;28;82469;-69
2022/09/05 13:54:19;;;;;;;5.53;2.03;;;27.50;56.90;;;;;;4883511;28;82450;-69
2022/09/05 13:57:02;;;;;;;3.10;2.13;;;27.20;56.50;;;;;;4877203;28;81551;-69
2022/09/05 13:59:35;;;;;;;5.80;1.77;;;27.10;58.10;;;;;;4885465;28;81719;-69
2022/09/05 14:02:25;;;;;;;2.88;1.70;;;27.10;58.90;;;;;;4873659;28;84457;-69
2022/09/05 14:05:29;;;;;;;2.72;2.03;;;27.10;59.70;;;;;;4883474;28;82877;-68
2022/09/05 14:08:16;;;;;;;2.47;2.05;;;26.80;61.60;;;;;;4882547;28;81919;-70
2022/09/05 14:11:00;;;;;;;4.90;2.20;;;26.90;59.80;;;;;;4883209;28;81826;-69
2022/09/05 14:13:48;;;;;;;2.60;2.25;;;26.90;59.90;;;;;;4876349;28;83202;-69
2022/09/05 14:16:25;;;;;;;5.93;2.03;;;26.80;59.60;;;;;;4882689;28;82313;-70
2022/09/05 14:21:38;;;;;;;3.50;1.60;;;27.00;59.40;;;;;;4881030;28;81267;-68
2022/09/05 14:24:17;;;;;;;4.07;2.35;;;27.00;60.60;;;;;;4883167;28;82362;-68
2022/09/05 14:27:08;;;;;;;5.28;2.13;;;26.90;61.10;;;;;;4887031;28;81738;-70
2022/09/05 14:29:50;;;;;;;2.50;1.98;;;26.80;60.60;;;;;;4874431;28;82722;-71
2022/09/05 14:32:18;;;;;;;2.95;2.08;;;26.60;61.70;;;;;;4879865;28;81201;-68
2022/09/05 14:34:53;;;;;;;4.40;1.70;;;26.50;63.00;;;;;;4880557;28;82066;-69
2022/09/05 14:37:50;;;;;;;4.65;2.67;;;26.60;62.00;;;;;;4879202;28;82083;-69
2022/09/05 14:40:54;;;;;;;3.17;1.95;;;26.60;61.40;;;;;;4868123;28;81705;-70
2022/09/05 14:43:50;;;;;;;4.38;2.25;;;26.50;62.70;;;;;;4881408;28;82327;-70
2022/09/05 14:46:16;;;;;;;2.67;1.17;;;26.40;62.70;;;;;;4872932;28;81821;-69
2022/09/05 14:49:09;;;;;;;5.20;2.53;;;26.20;62.10;;;;;;4886460;28;83160;-69
2022/09/05 14:51:40;;;;;;;4.75;2.08;;;26.20;63.60;;;;;;4883207;28;81743;-70
2022/09/05 14:54:25;;;;;;;5.85;2.40;;;26.20;64.60;;;;;;4883670;28;82046;-69
2022/09/05 14:57:01;;;;;;;3.67;2.10;;;26.30;64.10;;;;;;4879037;28;83111;-70
2022/09/05 14:59:26;;;;;;;;;;;26.40;64.10;;;;;;4882224;28;82831;-70
2022/09/05 15:02:01;;;;;;;5.75;2.30;;;26.20;64.60;;;;;;4884097;28;82189;-70
2022/09/05 15:04:36;;;;;;;5.07;2.60;;;26.20;63.80;;;;;;4884669;28;81564;-69
2022/09/05 15:07:02;;;;;;;7.35;2.25;;;26.50;63.00;;;;;;4890411;28;82390;-69
2022/09/05 15:09:28;;;;;;;4.68;2.35;;;26.60;62.20;;;;;;4890253;28;83214;-69
2022/09/05 15:11:58;;;;;;;3.40;2.00;;;26.70;62.40;;;;;;4886290;28;81976;-69
2022/09/05 15:14:27;;;;;;;4.65;2.10;;;26.60;62.60;;;;;;4893101;28;81795;-69
2022/09/05 15:17:02;;;;;;;;;;;26.50;63.10;;;;;;4888722;28;81608;-70
2022/09/05 15:19:58;;;;;;;5.32;1.23;;;26.50;63.60;;;;;;4885606;28;82000;-70
2022/09/05 15:22:31;;;;;;;6.25;2.15;;;26.50;63.30;;;;;;4876415;28;82583;-69
2022/09/05 15:25:15;;;;;;;6.97;2.47;;;26.30;64.30;;;;;;4880710;28;82263;-71
2022/09/05 15:27:41;;;;;;;8.48;3.08;;;26.40;64.80;;;;;;4890291;28;82646;-70
2022/09/05 15:30:19;;;;;;;3.35;2.40;;;26.20;64.00;;;;;;4893407;28;83226;-69
2022/09/05 15:32:46;;;;;;;4.97;1.88;;;26.30;64.70;;;;;;4883998;28;81623;-70
2022/09/05 15:35:32;;;;;;;3.38;2.33;;;26.40;64.30;;;;;;4892676;28;82481;-70
2022/09/05 15:37:58;;;;;;;3.85;1.77;;;26.20;64.20;;;;;;4889113;28;82201;-70
2022/09/05 15:40:24;;;;;;;4.35;2.10;;;26.00;64.70;;;;;;4883727;28;82255;-70
2022/09/05 15:43:01;;;;;;;2.60;1.85;;;25.90;64.50;;;;;;4880838;28;82128;-69
2022/09/05 15:45:36;;;;;;;4.65;2.08;;;25.90;65.30;;;;;;4880163;28;81795;-70
2022/09/05 15:48:11;;;;;;;4.07;2.35;;;25.90;65.30;;;;;;4882608;28;83305;-69
2022/09/05 15:50:52;;;;;;;6.78;2.22;;;25.90;63.70;;;;;;4884267;28;82208;-70
2022/09/05 15:53:27;;;;;;;4.47;1.85;;;25.90;64.90;;;;;;4876408;28;81857;-75
2022/09/05 15:55:54;;;;;;;;;;;26.00;64.10;;;;;;4884309;28;81821;-71
2022/09/05 15:58:19;;;;;;;5.35;1.80;;;25.80;65.00;;;;;;4881199;28;82193;-72
2022/09/05 16:00:54;;;;;;;3.55;1.98;;;25.80;64.30;;;;;;4874677;28;81280;-71
2022/09/05 16:03:29;;;;;;;6.13;2.28;;;25.80;64.20;;;;;;4883132;28;81831;-73
2022/09/05 16:06:01;;;;;;;3.55;1.70;;;26.00;63.40;;;;;;4878344;28;82847;-70
2022/09/05 16:08:37;;;;;;;5.00;1.98;;;26.10;60.90;;;;;;4880623;28;81926;-69
2022/09/05 16:11:26;;;;;;;3.83;2.28;;;26.10;60.60;;;;;;4873093;28;82534;-69
2022/09/05 16:14:11;;;;;;;4.55;1.52;;;26.10;61.40;;;;;;4888689;28;82696;-72
2022/09/05 16:16:42;;;;;;;3.72;1.92;;;26.10;61.80;;;;;;4882997;28;82192;-70
2022/09/05 16:19:20;;;;;;;4.63;1.50;;;26.10;62.00;;;;;;4876662;28;82277;-70
2022/09/05 16:21:47;;;;;;;6.40;1.10;;;26.00;59.90;;;;;;4886893;28;83260;-70
2022/09/05 16:24:23;;;;;;;2.58;1.67;;;25.90;61.20;;;;;;4879278;28;81570;-70
2022/09/05 16:26:51;;;;;;;4.45;1.65;;;25.80;60.00;;;;;;4881711;28;81757;-71
2022/09/05 16:29:23;;;;;;;5.30;1.30;;;25.80;60.00;;;;;;4881147;28;83063;-70
2022/09/05 16:32:12;;;;;;;13.13;1.80;;;25.90;61.00;;;;;;4882235;28;82976;-70
2022/09/05 16:34:43;;;;;;;3.40;1.38;;;25.70;61.10;;;;;;4881932;28;81727;-71
2022/09/05 16:37:12;;;;;;;4.45;1.52;;;25.70;61.70;;;;;;4885747;28;82165;-69
2022/09/05 16:39:46;;;;;;;3.92;1.20;;;25.80;61.90;;;;;;4884519;28;83232;-69
2022/09/05 16:42:42;;;;;;;5.05;1.77;;;25.80;62.50;;;;;;4880157;28;82318;-71
2022/09/05 16:45:28;;;;;;;7.78;1.60;;;25.70;62.90;;;;;;4857923;28;81828;-69
2022/09/05 16:48:29;;;;;;;3.97;1.95;;;25.80;62.80;;;;;;4881696;28;82456;-70
2022/09/05 16:51:02;;;;;;;3.03;1.83;;;25.70;63.60;;;;;;4878842;28;81637;-68